sensor_id;sensor_type;location;lat;lon;timestamp;P1;durP1;ratioP1;P2;durP2;ratioP2
22191;SDS011;11261;52.456;10.850;2023-06-22T00:00:35;7.63;;;6.38;;
22191;SDS011;11261;52.456;10.850;2023-06-22T00:03:05;7.18;;;6.22;;
22191;SDS011;11261;52.456;10.850;2023-06-22T00:05:35;7.63;;;6.50;;
22191;SDS011;11261;52.456;10.850;2023-06-22T00:08:04;8.13;;;6.20;;
22191;SDS011;11261;52.456;10.850;2023-06-22T00:10:33;7.97;;;6.35;;
22191;SDS011;11261;52.456;10.850;2023-06-22T00:13:01;7.40;;;5.78;;
22191;SDS011;11261;52.456;10.850;2023-06-22T00:15:29;8.40;;;6.40;;
22191;SDS011;11261;52.456;10.850;2023-06-22T00:17:58;8.48;;;5.88;;
22191;SDS011;11261;52.456;10.850;2023-06-22T00:20:26;7.28;;;5.90;;
22191;SDS011;11261;52.456;10.850;2023-06-22T00:22:58;7.35;;;5.93;;
22191;SDS011;11261;52.456;10.850;2023-06-22T00:25:26;8.95;;;5.55;;
22191;SDS011;11261;52.456;10.850;2023-06-22T00:27:55;7.10;;;5.78;;
22191;SDS011;11261;52.456;10.850;2023-06-22T00:30:23;8.75;;;6.43;;
22191;SDS011;11261;52.456;10.850;2023-06-22T00:32:52;8.13;;;6.53;;
22191;SDS011;11261;52.456;10.850;2023-06-22T00:35:20;6.68;;;5.68;;
22191;SDS011;11261;52.456;10.850;2023-06-22T00:37:49;6.97;;;6.25;;
22191;SDS011;11261;52.456;10.850;2023-06-22T00:40:19;9.13;;;6.20;;
22191;SDS011;11261;52.456;10.850;2023-06-22T00:42:48;8.32;;;6.28;;
22191;SDS011;11261;52.456;10.850;2023-06-22T00:45:16;10.23;;;7.03;;
22191;SDS011;11261;52.456;10.850;2023-06-22T00:47:45;9.25;;;6.40;;
22191;SDS011;11261;52.456;10.850;2023-06-22T00:50:15;7.13;;;5.88;;
22191;SDS011;11261;52.456;10.850;2023-06-22T00:52:48;9.82;;;6.82;;
22191;SDS011;11261;52.456;10.850;2023-06-22T00:55:20;9.05;;;6.60;;
22191;SDS011;11261;52.456;10.850;2023-06-22T00:57:50;9.80;;;6.18;;
22191;SDS011;11261;52.456;10.850;2023-06-22T01:00:22;9.13;;;7.03;;
22191;SDS011;11261;52.456;10.850;2023-06-22T01:02:52;8.65;;;6.82;;
22191;SDS011;11261;52.456;10.850;2023-06-22T01:05:22;8.98;;;7.10;;
22191;SDS011;11261;52.456;10.850;2023-06-22T01:07:54;8.40;;;6.97;;
22191;SDS011;11261;52.456;10.850;2023-06-22T01:10:32;8.88;;;6.50;;
22191;SDS011;11261;52.456;10.850;2023-06-22T01:13:09;7.57;;;6.47;;
22191;SDS011;11261;52.456;10.850;2023-06-22T01:15:44;9.05;;;6.80;;
22191;SDS011;11261;52.456;10.850;2023-06-22T01:18:16;9.88;;;7.43;;
22191;SDS011;11261;52.456;10.850;2023-06-22T01:20:46;7.95;;;6.95;;
22191;SDS011;11261;52.456;10.850;2023-06-22T01:23:17;10.25;;;6.47;;
22191;SDS011;11261;52.456;10.850;2023-06-22T01:25:59;8.82;;;7.10;;
22191;SDS011;11261;52.456;10.850;2023-06-22T01:28:40;7.35;;;6.05;;
22191;SDS011;11261;52.456;10.850;2023-06-22T01:31:11;8.65;;;6.90;;
22191;SDS011;11261;52.456;10.850;2023-06-22T01:33:44;7.97;;;6.70;;
22191;SDS011;11261;52.456;10.850;2023-06-22T01:36:16;10.60;;;6.35;;
22191;SDS011;11261;52.456;10.850;2023-06-22T01:38:45;10.30;;;7.20;;
22191;SDS011;11261;52.456;10.850;2023-06-22T01:41:15;9.65;;;6.80;;
22191;SDS011;11261;52.456;10.850;2023-06-22T01:43:46;10.02;;;6.85;;
22191;SDS011;11261;52.456;10.850;2023-06-22T01:46:15;9.77;;;6.75;;
22191;SDS011;11261;52.456;10.850;2023-06-22T01:48:46;9.30;;;7.40;;
22191;SDS011;11261;52.456;10.850;2023-06-22T01:51:15;8.68;;;7.05;;
22191;SDS011;11261;52.456;10.850;2023-06-22T01:53:43;9.30;;;6.65;;
22191;SDS011;11261;52.456;10.850;2023-06-22T01:56:12;7.65;;;6.57;;
22191;SDS011;11261;52.456;10.850;2023-06-22T01:58:48;8.93;;;6.53;;
22191;SDS011;11261;52.456;10.850;2023-06-22T02:01:31;8.30;;;6.80;;
22191;SDS011;11261;52.456;10.850;2023-06-22T02:04:03;8.70;;;6.97;;
22191;SDS011;11261;52.456;10.850;2023-06-22T02:06:36;8.38;;;6.05;;
22191;SDS011;11261;52.456;10.850;2023-06-22T02:09:07;9.18;;;6.57;;
22191;SDS011;11261;52.456;10.850;2023-06-22T02:11:39;9.45;;;7.13;;
22191;SDS011;11261;52.456;10.850;2023-06-22T02:14:11;9.18;;;7.15;;
22191;SDS011;11261;52.456;10.850;2023-06-22T02:16:41;7.72;;;6.70;;
22191;SDS011;11261;52.456;10.850;2023-06-22T02:19:10;11.13;;;6.45;;
22191;SDS011;11261;52.456;10.850;2023-06-22T02:21:38;8.60;;;6.30;;
22191;SDS011;11261;52.456;10.850;2023-06-22T02:24:06;10.88;;;7.70;;
22191;SDS011;11261;52.456;10.850;2023-06-22T02:26:34;8.90;;;6.63;;
22191;SDS011;11261;52.456;10.850;2023-06-22T02:29:04;9.70;;;6.80;;
22191;SDS011;11261;52.456;10.850;2023-06-22T02:31:34;9.45;;;7.00;;
22191;SDS011;11261;52.456;10.850;2023-06-22T02:34:02;9.48;;;7.18;;
22191;SDS011;11261;52.456;10.850;2023-06-22T02:36:31;10.32;;;7.57;;
22191;SDS011;11261;52.456;10.850;2023-06-22T02:39:00;9.38;;;7.28;;
22191;SDS011;11261;52.456;10.850;2023-06-22T02:41:30;9.45;;;7.25;;
22191;SDS011;11261;52.456;10.850;2023-06-22T02:43:58;9.50;;;7.22;;
22191;SDS011;11261;52.456;10.850;2023-06-22T02:46:26;9.13;;;7.53;;
22191;SDS011;11261;52.456;10.850;2023-06-22T02:48:56;10.10;;;7.20;;
22191;SDS011;11261;52.456;10.850;2023-06-22T02:51:24;8.27;;;7.05;;
22191;SDS011;11261;52.456;10.850;2023-06-22T02:53:52;9.00;;;7.65;;
22191;SDS011;11261;52.456;10.850;2023-06-22T02:56:24;8.70;;;7.05;;
22191;SDS011;11261;52.456;10.850;2023-06-22T02:58:52;8.45;;;6.57;;
22191;SDS011;11261;52.456;10.850;2023-06-22T03:01:20;7.88;;;6.82;;
22191;SDS011;11261;52.456;10.850;2023-06-22T03:03:50;12.40;;;7.60;;
22191;SDS011;11261;52.456;10.850;2023-06-22T03:06:21;9.18;;;7.05;;
22191;SDS011;11261;52.456;10.850;2023-06-22T03:08:50;9.45;;;7.32;;
22191;SDS011;11261;52.456;10.850;2023-06-22T03:11:18;6.95;;;6.25;;
22191;SDS011;11261;52.456;10.850;2023-06-22T03:13:46;8.10;;;6.57;;
22191;SDS011;11261;52.456;10.850;2023-06-22T03:16:15;7.70;;;5.90;;
22191;SDS011;11261;52.456;10.850;2023-06-22T03:18:43;6.97;;;6.28;;
22191;SDS011;11261;52.456;10.850;2023-06-22T03:21:11;8.23;;;6.40;;
22191;SDS011;11261;52.456;10.850;2023-06-22T03:23:43;10.32;;;7.22;;
22191;SDS011;11261;52.456;10.850;2023-06-22T03:26:11;8.18;;;6.43;;
22191;SDS011;11261;52.456;10.850;2023-06-22T03:28:40;9.68;;;7.22;;
22191;SDS011;11261;52.456;10.850;2023-06-22T03:31:08;11.60;;;7.00;;
22191;SDS011;11261;52.456;10.850;2023-06-22T03:33:36;11.75;;;6.57;;
22191;SDS011;11261;52.456;10.850;2023-06-22T03:36:05;10.18;;;7.45;;
22191;SDS011;11261;52.456;10.850;2023-06-22T03:38:33;8.52;;;6.68;;
22191;SDS011;11261;52.456;10.850;2023-06-22T03:41:03;8.65;;;6.75;;
22191;SDS011;11261;52.456;10.850;2023-06-22T03:43:32;8.93;;;7.28;;
22191;SDS011;11261;52.456;10.850;2023-06-22T03:46:00;9.32;;;6.85;;
22191;SDS011;11261;52.456;10.850;2023-06-22T03:48:28;6.78;;;5.45;;
22191;SDS011;11261;52.456;10.850;2023-06-22T03:50:56;7.63;;;6.35;;
22191;SDS011;11261;52.456;10.850;2023-06-22T03:53:26;7.25;;;6.20;;
22191;SDS011;11261;52.456;10.850;2023-06-22T03:55:55;9.43;;;6.85;;
22191;SDS011;11261;52.456;10.850;2023-06-22T03:58:24;7.40;;;6.45;;
22191;SDS011;11261;52.456;10.850;2023-06-22T04:00:52;7.35;;;6.28;;
22191;SDS011;11261;52.456;10.850;2023-06-22T04:03:21;9.00;;;6.63;;
22191;SDS011;11261;52.456;10.850;2023-06-22T04:05:49;7.85;;;6.47;;
22191;SDS011;11261;52.456;10.850;2023-06-22T04:08:17;8.27;;;5.90;;
22191;SDS011;11261;52.456;10.850;2023-06-22T04:10:46;8.23;;;6.35;;
22191;SDS011;11261;52.456;10.850;2023-06-22T04:13:14;9.07;;;6.30;;
22191;SDS011;11261;52.456;10.850;2023-06-22T04:15:44;7.63;;;6.28;;
22191;SDS011;11261;52.456;10.850;2023-06-22T04:18:12;8.10;;;6.70;;
22191;SDS011;11261;52.456;10.850;2023-06-22T04:20:41;9.18;;;6.88;;
22191;SDS011;11261;52.456;10.850;2023-06-22T04:23:13;6.20;;;5.28;;
22191;SDS011;11261;52.456;10.850;2023-06-22T04:25:42;10.57;;;6.70;;
22191;SDS011;11261;52.456;10.850;2023-06-22T04:28:10;8.05;;;6.35;;
22191;SDS011;11261;52.456;10.850;2023-06-22T04:30:39;8.77;;;7.00;;
22191;SDS011;11261;52.456;10.850;2023-06-22T04:33:14;9.35;;;7.25;;
22191;SDS011;11261;52.456;10.850;2023-06-22T04:35:44;8.73;;;7.50;;
22191;SDS011;11261;52.456;10.850;2023-06-22T04:38:13;11.10;;;7.40;;
22191;SDS011;11261;52.456;10.850;2023-06-22T04:40:42;8.85;;;6.97;;
22191;SDS011;11261;52.456;10.850;2023-06-22T04:43:10;7.85;;;6.53;;
22191;SDS011;11261;52.456;10.850;2023-06-22T04:45:39;7.38;;;6.55;;
22191;SDS011;11261;52.456;10.850;2023-06-22T04:48:07;8.05;;;6.95;;
22191;SDS011;11261;52.456;10.850;2023-06-22T04:50:37;9.52;;;6.72;;
22191;SDS011;11261;52.456;10.850;2023-06-22T04:53:06;8.65;;;7.03;;
22191;SDS011;11261;52.456;10.850;2023-06-22T04:55:39;9.63;;;6.43;;
22191;SDS011;11261;52.456;10.850;2023-06-22T04:58:12;7.32;;;5.80;;
22191;SDS011;11261;52.456;10.850;2023-06-22T05:00:40;9.27;;;6.68;;
22191;SDS011;11261;52.456;10.850;2023-06-22T05:03:11;7.30;;;5.97;;
22191;SDS011;11261;52.456;10.850;2023-06-22T05:05:47;5.95;;;5.32;;
22191;SDS011;11261;52.456;10.850;2023-06-22T05:08:33;7.53;;;5.57;;
22191;SDS011;11261;52.456;10.850;2023-06-22T05:11:01;7.43;;;5.43;;
22191;SDS011;11261;52.456;10.850;2023-06-22T05:13:31;7.38;;;6.00;;
22191;SDS011;11261;52.456;10.850;2023-06-22T05:16:00;4.93;;;4.43;;
22191;SDS011;11261;52.456;10.850;2023-06-22T05:18:29;7.68;;;4.93;;
22191;SDS011;11261;52.456;10.850;2023-06-22T05:21:00;7.90;;;5.80;;
22191;SDS011;11261;52.456;10.850;2023-06-22T05:23:29;6.97;;;5.70;;
22191;SDS011;11261;52.456;10.850;2023-06-22T05:25:58;8.20;;;5.07;;
22191;SDS011;11261;52.456;10.850;2023-06-22T05:28:26;7.38;;;5.07;;
22191;SDS011;11261;52.456;10.850;2023-06-22T05:30:55;7.43;;;5.38;;
22191;SDS011;11261;52.456;10.850;2023-06-22T05:33:23;6.30;;;5.15;;
22191;SDS011;11261;52.456;10.850;2023-06-22T05:35:51;7.10;;;5.90;;
22191;SDS011;11261;52.456;10.850;2023-06-22T05:38:21;8.02;;;5.82;;
22191;SDS011;11261;52.456;10.850;2023-06-22T05:40:49;6.70;;;5.60;;
22191;SDS011;11261;52.456;10.850;2023-06-22T05:43:18;6.47;;;5.25;;
22191;SDS011;11261;52.456;10.850;2023-06-22T05:45:46;7.05;;;5.50;;
22191;SDS011;11261;52.456;10.850;2023-06-22T05:48:15;11.27;;;5.68;;
22191;SDS011;11261;52.456;10.850;2023-06-22T05:50:43;6.57;;;5.15;;
22191;SDS011;11261;52.456;10.850;2023-06-22T05:53:11;9.57;;;5.43;;
22191;SDS011;11261;52.456;10.850;2023-06-22T05:55:41;7.22;;;5.63;;
22191;SDS011;11261;52.456;10.850;2023-06-22T05:58:10;6.18;;;4.95;;
22191;SDS011;11261;52.456;10.850;2023-06-22T06:00:40;6.55;;;5.95;;
22191;SDS011;11261;52.456;10.850;2023-06-22T06:03:09;8.23;;;5.28;;
22191;SDS011;11261;52.456;10.850;2023-06-22T06:05:40;7.28;;;5.82;;
22191;SDS011;11261;52.456;10.850;2023-06-22T06:08:09;6.03;;;5.43;;
22191;SDS011;11261;52.456;10.850;2023-06-22T06:10:38;5.65;;;4.88;;
22191;SDS011;11261;52.456;10.850;2023-06-22T06:13:08;8.45;;;6.40;;
22191;SDS011;11261;52.456;10.850;2023-06-22T06:15:36;6.22;;;5.50;;
22191;SDS011;11261;52.456;10.850;2023-06-22T06:18:05;11.02;;;6.15;;
22191;SDS011;11261;52.456;10.850;2023-06-22T06:20:33;11.02;;;6.03;;
22191;SDS011;11261;52.456;10.850;2023-06-22T06:23:02;7.15;;;5.95;;
22191;SDS011;11261;52.456;10.850;2023-06-22T06:25:30;6.82;;;5.82;;
22191;SDS011;11261;52.456;10.850;2023-06-22T06:27:58;7.90;;;5.55;;
22191;SDS011;11261;52.456;10.850;2023-06-22T06:30:28;6.47;;;4.95;;
22191;SDS011;11261;52.456;10.850;2023-06-22T06:32:58;8.50;;;5.68;;
22191;SDS011;11261;52.456;10.850;2023-06-22T06:35:26;6.38;;;5.45;;
22191;SDS011;11261;52.456;10.850;2023-06-22T06:37:55;7.38;;;5.38;;
22191;SDS011;11261;52.456;10.850;2023-06-22T06:40:23;7.10;;;5.55;;
22191;SDS011;11261;52.456;10.850;2023-06-22T06:42:52;6.45;;;4.85;;
22191;SDS011;11261;52.456;10.850;2023-06-22T06:45:21;5.72;;;5.00;;
22191;SDS011;11261;52.456;10.850;2023-06-22T06:47:51;7.28;;;5.28;;
22191;SDS011;11261;52.456;10.850;2023-06-22T06:50:20;8.75;;;4.88;;
22191;SDS011;11261;52.456;10.850;2023-06-22T06:52:49;5.53;;;4.85;;
22191;SDS011;11261;52.456;10.850;2023-06-22T06:55:17;8.90;;;6.28;;
22191;SDS011;11261;52.456;10.850;2023-06-22T06:57:46;6.35;;;5.40;;
22191;SDS011;11261;52.456;10.850;2023-06-22T07:00:17;7.03;;;5.13;;
22191;SDS011;11261;52.456;10.850;2023-06-22T07:02:46;5.68;;;4.88;;
22191;SDS011;11261;52.456;10.850;2023-06-22T07:05:16;6.45;;;5.22;;
22191;SDS011;11261;52.456;10.850;2023-06-22T07:07:45;6.70;;;5.60;;
22191;SDS011;11261;52.456;10.850;2023-06-22T07:10:13;8.93;;;5.53;;
22191;SDS011;11261;52.456;10.850;2023-06-22T07:12:42;7.13;;;5.50;;
22191;SDS011;11261;52.456;10.850;2023-06-22T07:15:11;6.40;;;5.07;;
22191;SDS011;11261;52.456;10.850;2023-06-22T07:17:39;9.35;;;5.20;;
22191;SDS011;11261;52.456;10.850;2023-06-22T07:20:08;6.15;;;5.35;;
22191;SDS011;11261;52.456;10.850;2023-06-22T07:22:41;6.28;;;5.68;;
22191;SDS011;11261;52.456;10.850;2023-06-22T07:25:11;6.38;;;5.22;;
22191;SDS011;11261;52.456;10.850;2023-06-22T07:27:44;6.82;;;5.78;;
22191;SDS011;11261;52.456;10.850;2023-06-22T07:30:14;6.65;;;5.30;;
22191;SDS011;11261;52.456;10.850;2023-06-22T07:32:44;7.60;;;5.93;;
22191;SDS011;11261;52.456;10.850;2023-06-22T07:35:13;6.22;;;5.38;;
22191;SDS011;11261;52.456;10.850;2023-06-22T07:37:44;7.72;;;4.90;;
22191;SDS011;11261;52.456;10.850;2023-06-22T07:40:12;6.55;;;5.03;;
22191;SDS011;11261;52.456;10.850;2023-06-22T07:42:41;6.75;;;5.43;;
22191;SDS011;11261;52.456;10.850;2023-06-22T07:45:09;8.27;;;5.93;;
22191;SDS011;11261;52.456;10.850;2023-06-22T07:47:38;10.05;;;6.07;;
22191;SDS011;11261;52.456;10.850;2023-06-22T07:50:06;6.30;;;5.40;;
22191;SDS011;11261;52.456;10.850;2023-06-22T07:52:35;6.25;;;4.40;;
22191;SDS011;11261;52.456;10.850;2023-06-22T07:55:05;8.23;;;5.85;;
22191;SDS011;11261;52.456;10.850;2023-06-22T07:57:34;6.05;;;5.43;;
22191;SDS011;11261;52.456;10.850;2023-06-22T08:00:03;8.85;;;5.88;;
22191;SDS011;11261;52.456;10.850;2023-06-22T08:02:39;6.80;;;5.43;;
22191;SDS011;11261;52.456;10.850;2023-06-22T08:05:08;7.03;;;5.57;;
22191;SDS011;11261;52.456;10.850;2023-06-22T08:07:40;7.97;;;6.68;;
22191;SDS011;11261;52.456;10.850;2023-06-22T08:10:15;6.93;;;6.22;;
22191;SDS011;11261;52.456;10.850;2023-06-22T08:12:43;7.05;;;6.28;;
22191;SDS011;11261;52.456;10.850;2023-06-22T08:15:11;7.15;;;6.40;;
22191;SDS011;11261;52.456;10.850;2023-06-22T08:17:39;7.72;;;6.93;;
22191;SDS011;11261;52.456;10.850;2023-06-22T08:20:08;8.25;;;7.18;;
22191;SDS011;11261;52.456;10.850;2023-06-22T08:22:38;10.57;;;6.95;;
22191;SDS011;11261;52.456;10.850;2023-06-22T08:25:07;7.45;;;6.38;;
22191;SDS011;11261;52.456;10.850;2023-06-22T08:27:37;8.23;;;7.15;;
22191;SDS011;11261;52.456;10.850;2023-06-22T08:30:06;7.63;;;6.63;;
22191;SDS011;11261;52.456;10.850;2023-06-22T08:32:35;9.93;;;6.93;;
22191;SDS011;11261;52.456;10.850;2023-06-22T08:35:03;7.43;;;6.43;;
22191;SDS011;11261;52.456;10.850;2023-06-22T08:37:33;8.07;;;6.57;;
22191;SDS011;11261;52.456;10.850;2023-06-22T08:40:03;9.10;;;6.60;;
22191;SDS011;11261;52.456;10.850;2023-06-22T08:42:34;10.25;;;6.53;;
22191;SDS011;11261;52.456;10.850;2023-06-22T08:45:04;7.53;;;6.25;;
22191;SDS011;11261;52.456;10.850;2023-06-22T08:47:33;9.65;;;7.35;;
22191;SDS011;11261;52.456;10.850;2023-06-22T08:50:02;7.60;;;6.80;;
22191;SDS011;11261;52.456;10.850;2023-06-22T08:52:30;8.27;;;7.13;;
22191;SDS011;11261;52.456;10.850;2023-06-22T08:54:58;8.25;;;6.45;;
22191;SDS011;11261;52.456;10.850;2023-06-22T08:57:27;9.77;;;6.88;;
22191;SDS011;11261;52.456;10.850;2023-06-22T08:59:56;8.93;;;6.95;;
22191;SDS011;11261;52.456;10.850;2023-06-22T09:02:27;8.75;;;7.85;;
22191;SDS011;11261;52.456;10.850;2023-06-22T09:04:58;7.60;;;6.90;;
22191;SDS011;11261;52.456;10.850;2023-06-22T09:07:27;7.25;;;6.38;;
22191;SDS011;11261;52.456;10.850;2023-06-22T09:09:55;7.55;;;6.63;;
22191;SDS011;11261;52.456;10.850;2023-06-22T09:12:26;9.98;;;6.93;;
22191;SDS011;11261;52.456;10.850;2023-06-22T09:14:57;10.95;;;7.68;;
22191;SDS011;11261;52.456;10.850;2023-06-22T09:17:28;9.02;;;6.97;;
22191;SDS011;11261;52.456;10.850;2023-06-22T09:19:56;8.70;;;5.93;;
22191;SDS011;11261;52.456;10.850;2023-06-22T09:22:24;7.68;;;6.88;;
22191;SDS011;11261;52.456;10.850;2023-06-22T09:24:55;8.32;;;7.53;;
22191;SDS011;11261;52.456;10.850;2023-06-22T09:27:24;8.40;;;7.32;;
22191;SDS011;11261;52.456;10.850;2023-06-22T09:29:52;8.30;;;7.50;;
22191;SDS011;11261;52.456;10.850;2023-06-22T09:32:21;10.02;;;8.23;;
22191;SDS011;11261;52.456;10.850;2023-06-22T09:34:51;10.07;;;6.68;;
22191;SDS011;11261;52.456;10.850;2023-06-22T09:37:19;8.82;;;7.28;;
22191;SDS011;11261;52.456;10.850;2023-06-22T09:39:47;9.00;;;7.15;;
22191;SDS011;11261;52.456;10.850;2023-06-22T09:42:16;8.60;;;7.75;;
22191;SDS011;11261;52.456;10.850;2023-06-22T09:44:44;8.90;;;7.25;;
22191;SDS011;11261;52.456;10.850;2023-06-22T09:47:12;9.15;;;7.55;;
22191;SDS011;11261;52.456;10.850;2023-06-22T09:49:41;8.95;;;7.60;;
22191;SDS011;11261;52.456;10.850;2023-06-22T09:52:15;9.80;;;7.28;;
22191;SDS011;11261;52.456;10.850;2023-06-22T09:54:43;8.95;;;8.05;;
22191;SDS011;11261;52.456;10.850;2023-06-22T09:57:12;8.52;;;7.10;;
22191;SDS011;11261;52.456;10.850;2023-06-22T09:59:40;9.90;;;7.13;;
22191;SDS011;11261;52.456;10.850;2023-06-22T10:02:09;9.48;;;7.00;;
22191;SDS011;11261;52.456;10.850;2023-06-22T10:04:37;8.18;;;7.00;;
22191;SDS011;11261;52.456;10.850;2023-06-22T10:07:07;9.60;;;7.88;;
22191;SDS011;11261;52.456;10.850;2023-06-22T10:09:37;8.90;;;7.30;;
22191;SDS011;11261;52.456;10.850;2023-06-22T10:12:05;8.10;;;7.25;;
22191;SDS011;11261;52.456;10.850;2023-06-22T10:14:34;8.23;;;7.25;;
22191;SDS011;11261;52.456;10.850;2023-06-22T10:17:03;10.00;;;7.22;;
22191;SDS011;11261;52.456;10.850;2023-06-22T10:19:33;8.40;;;7.22;;
22191;SDS011;11261;52.456;10.850;2023-06-22T10:22:04;9.80;;;7.55;;
22191;SDS011;11261;52.456;10.850;2023-06-22T10:24:32;8.40;;;6.85;;
22191;SDS011;11261;52.456;10.850;2023-06-22T10:27:02;9.32;;;8.30;;
22191;SDS011;11261;52.456;10.850;2023-06-22T10:29:31;8.52;;;6.88;;
22191;SDS011;11261;52.456;10.850;2023-06-22T10:31:59;9.65;;;8.18;;
22191;SDS011;11261;52.456;10.850;2023-06-22T10:34:27;10.57;;;8.43;;
22191;SDS011;11261;52.456;10.850;2023-06-22T10:36:55;8.88;;;7.97;;
22191;SDS011;11261;52.456;10.850;2023-06-22T10:39:24;8.68;;;7.40;;
22191;SDS011;11261;52.456;10.850;2023-06-22T10:41:52;9.90;;;7.30;;
22191;SDS011;11261;52.456;10.850;2023-06-22T10:44:21;7.88;;;7.13;;
22191;SDS011;11261;52.456;10.850;2023-06-22T10:46:49;8.10;;;6.57;;
22191;SDS011;11261;52.456;10.850;2023-06-22T10:49:18;9.68;;;6.97;;
22191;SDS011;11261;52.456;10.850;2023-06-22T10:51:46;9.15;;;6.18;;
22191;SDS011;11261;52.456;10.850;2023-06-22T10:54:14;7.82;;;7.05;;
22191;SDS011;11261;52.456;10.850;2023-06-22T10:56:44;7.85;;;7.15;;
22191;SDS011;11261;52.456;10.850;2023-06-22T10:59:12;7.82;;;6.70;;
22191;SDS011;11261;52.456;10.850;2023-06-22T11:01:42;7.20;;;6.50;;
22191;SDS011;11261;52.456;10.850;2023-06-22T11:04:10;13.45;;;6.45;;
22191;SDS011;11261;52.456;10.850;2023-06-22T11:06:39;7.03;;;6.32;;
22191;SDS011;11261;52.456;10.850;2023-06-22T11:09:07;6.53;;;5.82;;
22191;SDS011;11261;52.456;10.850;2023-06-22T11:11:51;7.13;;;6.10;;
22191;SDS011;11261;52.456;10.850;2023-06-22T11:14:20;8.40;;;5.85;;
22191;SDS011;11261;52.456;10.850;2023-06-22T11:16:50;7.07;;;6.38;;
22191;SDS011;11261;52.456;10.850;2023-06-22T11:19:18;7.10;;;6.40;;
22191;SDS011;11261;52.456;10.850;2023-06-22T11:21:47;7.85;;;6.72;;
22191;SDS011;11261;52.456;10.850;2023-06-22T11:24:15;6.85;;;6.15;;
22191;SDS011;11261;52.456;10.850;2023-06-22T11:26:44;8.10;;;7.10;;
22191;SDS011;11261;52.456;10.850;2023-06-22T11:29:12;7.20;;;6.50;;
22191;SDS011;11261;52.456;10.850;2023-06-22T11:32:02;7.78;;;6.97;;
22191;SDS011;11261;52.456;10.850;2023-06-22T11:34:31;7.45;;;6.75;;
22191;SDS011;11261;52.456;10.850;2023-06-22T11:36:59;6.35;;;5.75;;
22191;SDS011;11261;52.456;10.850;2023-06-22T11:39:27;7.82;;;6.22;;
22191;SDS011;11261;52.456;10.850;2023-06-22T11:42:08;10.25;;;6.80;;
22191;SDS011;11261;52.456;10.850;2023-06-22T11:44:36;7.03;;;6.20;;
22191;SDS011;11261;52.456;10.850;2023-06-22T11:47:06;6.97;;;6.15;;
22191;SDS011;11261;52.456;10.850;2023-06-22T11:49:34;8.98;;;6.72;;
22191;SDS011;11261;52.456;10.850;2023-06-22T11:52:03;7.38;;;5.85;;
22191;SDS011;11261;52.456;10.850;2023-06-22T11:54:31;8.88;;;6.28;;
22191;SDS011;11261;52.456;10.850;2023-06-22T11:57:00;7.60;;;6.20;;
22191;SDS011;11261;52.456;10.850;2023-06-22T11:59:28;7.07;;;6.35;;
22191;SDS011;11261;52.456;10.850;2023-06-22T12:01:56;6.25;;;5.60;;
22191;SDS011;11261;52.456;10.850;2023-06-22T12:04:27;6.78;;;6.13;;
22191;SDS011;11261;52.456;10.850;2023-06-22T12:06:55;8.07;;;5.97;;
22191;SDS011;11261;52.456;10.850;2023-06-22T12:09:25;6.75;;;5.65;;
22191;SDS011;11261;52.456;10.850;2023-06-22T12:11:53;7.30;;;6.10;;
22191;SDS011;11261;52.456;10.850;2023-06-22T12:14:21;6.85;;;5.65;;
22191;SDS011;11261;52.456;10.850;2023-06-22T12:16:49;7.70;;;6.65;;
22191;SDS011;11261;52.456;10.850;2023-06-22T12:19:18;10.10;;;6.38;;
22191;SDS011;11261;52.456;10.850;2023-06-22T12:21:48;8.82;;;5.78;;
22191;SDS011;11261;52.456;10.850;2023-06-22T12:24:16;8.65;;;6.70;;
22191;SDS011;11261;52.456;10.850;2023-06-22T12:26:44;6.55;;;5.68;;
22191;SDS011;11261;52.456;10.850;2023-06-22T12:29:12;8.02;;;6.28;;
22191;SDS011;11261;52.456;10.850;2023-06-22T12:31:41;8.40;;;6.95;;
22191;SDS011;11261;52.456;10.850;2023-06-22T12:34:09;7.53;;;6.80;;
22191;SDS011;11261;52.456;10.850;2023-06-22T12:36:38;8.10;;;7.30;;
22191;SDS011;11261;52.456;10.850;2023-06-22T12:39:08;8.85;;;6.88;;
22191;SDS011;11261;52.456;10.850;2023-06-22T12:41:36;6.75;;;6.07;;
22191;SDS011;11261;52.456;10.850;2023-06-22T12:44:05;7.90;;;6.22;;
22191;SDS011;11261;52.456;10.850;2023-06-22T12:46:33;10.30;;;5.68;;
22191;SDS011;11261;52.456;10.850;2023-06-22T12:49:04;8.73;;;5.57;;
22191;SDS011;11261;52.456;10.850;2023-06-22T12:51:32;8.13;;;4.97;;
22191;SDS011;11261;52.456;10.850;2023-06-22T12:54:01;9.15;;;5.03;;
22191;SDS011;11261;52.456;10.850;2023-06-22T12:56:31;7.90;;;4.90;;
22191;SDS011;11261;52.456;10.850;2023-06-22T12:58:59;6.85;;;5.38;;
22191;SDS011;11261;52.456;10.850;2023-06-22T13:01:28;6.03;;;5.32;;
22191;SDS011;11261;52.456;10.850;2023-06-22T13:03:58;4.82;;;4.35;;
22191;SDS011;11261;52.456;10.850;2023-06-22T13:06:26;7.78;;;5.03;;
22191;SDS011;11261;52.456;10.850;2023-06-22T13:08:55;5.93;;;5.25;;
22191;SDS011;11261;52.456;10.850;2023-06-22T13:11:45;4.95;;;4.45;;
22191;SDS011;11261;52.456;10.850;2023-06-22T13:14:13;6.72;;;5.90;;
22191;SDS011;11261;52.456;10.850;2023-06-22T13:16:42;5.72;;;5.22;;
22191;SDS011;11261;52.456;10.850;2023-06-22T13:19:11;6.15;;;5.22;;
22191;SDS011;11261;52.456;10.850;2023-06-22T13:21:39;8.52;;;5.18;;
22191;SDS011;11261;52.456;10.850;2023-06-22T13:24:08;17.27;;;5.43;;
22191;SDS011;11261;52.456;10.850;2023-06-22T13:26:36;5.43;;;4.65;;
22191;SDS011;11261;52.456;10.850;2023-06-22T13:29:06;8.60;;;5.47;;
22191;SDS011;11261;52.456;10.850;2023-06-22T13:31:34;5.78;;;5.07;;
22191;SDS011;11261;52.456;10.850;2023-06-22T13:34:02;8.20;;;5.05;;
22191;SDS011;11261;52.456;10.850;2023-06-22T13:36:31;6.18;;;4.90;;
22191;SDS011;11261;52.456;10.850;2023-06-22T13:38:59;5.55;;;5.00;;
22191;SDS011;11261;52.456;10.850;2023-06-22T13:41:28;5.90;;;4.78;;
22191;SDS011;11261;52.456;10.850;2023-06-22T13:43:56;7.03;;;4.85;;
22191;SDS011;11261;52.456;10.850;2023-06-22T13:46:26;5.80;;;5.10;;
22191;SDS011;11261;52.456;10.850;2023-06-22T13:48:54;9.07;;;5.90;;
22191;SDS011;11261;52.456;10.850;2023-06-22T13:51:22;5.35;;;4.65;;
22191;SDS011;11261;52.456;10.850;2023-06-22T13:53:51;6.38;;;5.40;;
22191;SDS011;11261;52.456;10.850;2023-06-22T13:56:20;5.90;;;4.70;;
22191;SDS011;11261;52.456;10.850;2023-06-22T13:58:48;6.40;;;5.72;;
22191;SDS011;11261;52.456;10.850;2023-06-22T14:01:16;6.68;;;5.18;;
22191;SDS011;11261;52.456;10.850;2023-06-22T14:03:47;5.78;;;5.13;;
22191;SDS011;11261;52.456;10.850;2023-06-22T14:06:16;7.90;;;5.32;;
22191;SDS011;11261;52.456;10.850;2023-06-22T14:08:44;5.03;;;4.53;;
22191;SDS011;11261;52.456;10.850;2023-06-22T14:11:13;5.90;;;5.30;;
22191;SDS011;11261;52.456;10.850;2023-06-22T14:13:41;6.88;;;5.28;;
22191;SDS011;11261;52.456;10.850;2023-06-22T14:16:09;5.30;;;4.72;;
22191;SDS011;11261;52.456;10.850;2023-06-22T14:18:37;7.38;;;5.38;;
22191;SDS011;11261;52.456;10.850;2023-06-22T14:21:08;5.50;;;5.00;;
22191;SDS011;11261;52.456;10.850;2023-06-22T14:23:36;7.03;;;5.05;;
22191;SDS011;11261;52.456;10.850;2023-06-22T14:26:05;4.97;;;4.55;;
22191;SDS011;11261;52.456;10.850;2023-06-22T14:28:33;6.25;;;5.50;;
22191;SDS011;11261;52.456;10.850;2023-06-22T14:31:01;5.75;;;4.93;;
22191;SDS011;11261;52.456;10.850;2023-06-22T14:33:30;7.95;;;5.85;;
22191;SDS011;11261;52.456;10.850;2023-06-22T14:35:58;6.38;;;5.35;;
22191;SDS011;11261;52.456;10.850;2023-06-22T14:38:28;6.65;;;5.18;;
22191;SDS011;11261;52.456;10.850;2023-06-22T14:40:56;6.53;;;4.90;;
22191;SDS011;11261;52.456;10.850;2023-06-22T14:43:43;7.07;;;5.97;;
22191;SDS011;11261;52.456;10.850;2023-06-22T14:46:12;5.53;;;4.93;;